Time;durP1;ratioP1;P1;durP2;ratioP2;P2;SDS_P1;SDS_P2;PMS_P1;PMS_P2;Temp;Humidity;BMP_temperature;BMP_pressure;BME280_temperature;BME280_humidity;BME280_pressure;Samples;Min_cycle;Max_cycle;Signal;HPM_P1;HPM_P2
2022/07/02 00:00:07;;;;;;;6.85;4.75;;;12.40;99.90;;;;;;5069271;28;20029;-65
2022/07/02 00:02:36;;;;;;;8.30;5.03;;;12.40;99.90;;;;;;5069420;28;20029;-64
2022/07/02 00:05:05;;;;;;;7.40;4.45;;;12.40;99.90;;;;;;5061147;28;20102;-64
2022/07/02 00:07:31;;;;;;;8.20;4.68;;;12.40;99.90;;;;;;5055876;28;20016;-65
2022/07/02 00:09:58;;;;;;;7.50;4.90;;;12.30;99.90;;;;;;5055892;28;20402;-64
2022/07/02 00:12:26;;;;;;;6.88;4.72;;;12.30;99.90;;;;;;5055710;28;20029;-65
2022/07/02 00:15:00;;;;;;;8.00;5.00;;;12.20;99.90;;;;;;5055993;28;20056;-64
2022/07/02 00:17:26;;;;;;;7.28;4.72;;;12.20;99.90;;;;;;5055974;28;20532;-65
2022/07/02 00:19:53;;;;;;;7.88;5.25;;;12.20;99.90;;;;;;5055887;28;20021;-64
2022/07/02 00:22:19;;;;;;;6.90;4.60;;;12.20;99.90;;;;;;5055650;28;20020;-64
2022/07/02 00:24:46;;;;;;;5.82;4.40;;;12.10;99.90;;;;;;5054445;28;20037;-65
2022/07/02 00:27:14;;;;;;;5.75;4.47;;;12.20;99.90;;;;;;5055765;28;20106;-65
2022/07/02 00:30:01;;;;;;;5.78;4.55;;;12.10;99.90;;;;;;5055879;28;20483;-64
2022/07/02 00:32:28;;;;;;;6.75;4.88;;;12.10;99.90;;;;;;5054055;28;20479;-64
2022/07/02 00:34:57;;;;;;;6.97;4.90;;;12.10;99.90;;;;;;5055352;28;20017;-64
2022/07/02 00:37:26;;;;;;;8.20;4.93;;;12.00;99.90;;;;;;5055542;28;20102;-64
2022/07/02 00:39:53;;;;;;;9.35;5.18;;;12.00;99.90;;;;;;5054084;28;20502;-64
2022/07/02 00:42:20;;;;;;;7.68;5.20;;;12.00;99.90;;;;;;5055328;28;20022;-64
2022/07/02 00:44:47;;;;;;;6.78;4.97;;;11.90;99.90;;;;;;5055454;28;20032;-64
2022/07/02 00:47:14;;;;;;;7.90;5.07;;;11.90;99.90;;;;;;5054012;28;20017;-64
2022/07/02 00:49:40;;;;;;;8.00;5.55;;;11.90;99.90;;;;;;5055390;28;20029;-64
2022/07/02 00:52:07;;;;;;;9.63;5.93;;;11.90;99.90;;;;;;5055311;28;20513;-64
2022/07/02 00:54:35;;;;;;;8.10;5.63;;;11.90;99.90;;;;;;5054840;28;20518;-64
2022/07/02 00:57:01;;;;;;;8.57;5.30;;;11.90;99.90;;;;;;5054997;28;20019;-65
2022/07/02 00:59:27;;;;;;;8.32;6.18;;;11.80;99.90;;;;;;5055166;28;20395;-64
2022/07/02 01:01:53;;;;;;;8.25;5.70;;;11.80;99.90;;;;;;5054908;28;20021;-65
2022/07/02 01:04:19;;;;;;;7.18;5.63;;;11.70;99.90;;;;;;5055112;28;20074;-65
2022/07/02 01:06:45;;;;;;;6.57;5.10;;;11.70;99.90;;;;;;5054918;28;20522;-64
2022/07/02 01:11:59;;;;;;;6.60;5.35;;;11.60;99.90;;;;;;5054562;28;20033;-65
2022/07/02 01:14:25;;;;;;;8.07;4.93;;;11.60;99.90;;;;;;5054823;28;20422;-64
2022/07/02 01:16:51;;;;;;;5.95;4.80;;;11.60;99.90;;;;;;5035803;28;20025;-64
2022/07/02 01:19:19;;;;;;;7.15;5.30;;;11.50;99.90;;;;;;5054619;28;20032;-64
2022/07/02 01:22:09;;;;;;;6.53;5.45;;;11.50;99.90;;;;;;5054784;28;20440;-64
2022/07/02 01:24:34;;;;;;;7.55;5.38;;;11.50;99.90;;;;;;5054430;28;20029;-64
2022/07/02 01:27:00;;;;;;;6.25;5.05;;;11.40;99.90;;;;;;5054835;28;20025;-64
2022/07/02 01:29:25;;;;;;;8.18;5.20;;;11.50;99.90;;;;;;5054326;28;20013;-64
2022/07/02 01:31:51;;;;;;;12.65;5.97;;;11.50;99.90;;;;;;5053036;28;20017;-64
2022/07/02 01:34:17;;;;;;;7.28;5.85;;;11.40;99.90;;;;;;5054146;28;20025;-64
2022/07/02 01:36:42;;;;;;;7.65;5.32;;;11.40;99.90;;;;;;5054239;28;20021;-64
2022/07/02 01:39:08;;;;;;;8.55;6.18;;;11.30;99.90;;;;;;5054425;28;20100;-64
2022/07/02 01:41:40;;;;;;;6.93;5.32;;;11.30;99.90;;;;;;5054146;28;20028;-65
2022/07/02 01:44:07;;;;;;;7.38;5.85;;;11.30;99.90;;;;;;5052955;28;20095;-64
2022/07/02 01:46:33;;;;;;;9.60;6.10;;;11.30;99.90;;;;;;5054223;28;20425;-64
2022/07/02 01:48:58;;;;;;;9.50;5.68;;;11.30;99.90;;;;;;5053968;28;20082;-64
2022/07/02 01:51:24;;;;;;;7.25;5.65;;;11.20;99.90;;;;;;5054194;28;20108;-64
2022/07/02 01:53:49;;;;;;;8.82;6.25;;;11.20;99.90;;;;;;5053810;28;20435;-64
2022/07/02 01:56:15;;;;;;;7.85;5.53;;;11.20;99.90;;;;;;5054173;28;20044;-64
2022/07/02 01:58:41;;;;;;;9.43;6.97;;;11.20;99.90;;;;;;5053899;28;20035;-64
2022/07/02 02:01:06;;;;;;;8.77;7.03;;;11.10;99.90;;;;;;5053733;28;20120;-63
2022/07/02 02:03:32;;;;;;;11.38;6.47;;;11.10;99.90;;;;;;5053961;28;20029;-65
2022/07/02 02:05:57;;;;;;;10.43;7.03;;;11.10;99.90;;;;;;5053638;28;20029;-64
2022/07/02 02:08:23;;;;;;;6.78;6.07;;;11.00;99.90;;;;;;5053923;28;20032;-64
2022/07/02 02:10:49;;;;;;;11.80;6.95;;;11.00;99.90;;;;;;5053657;28;20025;-64
2022/07/02 02:13:14;;;;;;;9.57;6.43;;;11.00;99.90;;;;;;5053749;28;20052;-64
2022/07/02 02:15:41;;;;;;;7.75;6.13;;;11.00;99.90;;;;;;5053622;28;20032;-64
2022/07/02 02:18:07;;;;;;;8.65;6.88;;;11.00;99.90;;;;;;5053748;28;20027;-65
2022/07/02 02:20:33;;;;;;;9.57;6.90;;;10.90;99.90;;;;;;5053704;28;20108;-64
2022/07/02 02:23:00;;;;;;;8.07;7.10;;;11.00;99.90;;;;;;5053662;28;20025;-65
2022/07/02 02:25:26;;;;;;;8.18;6.72;;;10.90;99.90;;;;;;5053283;28;20060;-64
2022/07/02 02:27:51;;;;;;;10.85;7.63;;;11.00;99.90;;;;;;5053137;28;20064;-64
2022/07/02 02:30:17;;;;;;;12.73;7.47;;;10.90;99.90;;;;;;5053374;28;20437;-64
2022/07/02 02:32:42;;;;;;;7.70;6.80;;;11.00;99.90;;;;;;5053187;28;20029;-64
2022/07/02 02:35:08;;;;;;;10.15;8.05;;;10.90;99.90;;;;;;5053246;28;20060;-64
2022/07/02 02:37:34;;;;;;;8.70;7.57;;;10.90;99.90;;;;;;5053193;28;20017;-64
2022/07/02 02:39:59;;;;;;;10.48;7.75;;;10.80;99.90;;;;;;5053188;28;20029;-64
2022/07/02 02:42:25;;;;;;;7.40;6.70;;;10.90;99.90;;;;;;5053162;28;20021;-64
2022/07/02 02:44:50;;;;;;;10.98;7.40;;;10.80;99.90;;;;;;5053155;28;20601;-64
2022/07/02 02:47:16;;;;;;;9.65;7.35;;;10.90;99.90;;;;;;5053173;28;20056;-64
2022/07/02 02:49:41;;;;;;;10.15;7.28;;;10.80;99.90;;;;;;5053067;28;20025;-64
2022/07/02 02:52:07;;;;;;;10.30;7.70;;;10.80;99.90;;;;;;5053294;28;20053;-64
2022/07/02 02:54:33;;;;;;;12.43;8.18;;;10.80;99.90;;;;;;5052798;28;20037;-63
2022/07/02 02:56:58;;;;;;;9.10;7.60;;;10.70;99.90;;;;;;5053308;28;20100;-64
2022/07/02 02:59:25;;;;;;;8.98;7.32;;;;;;;;;;5053001;28;20498;-64
2022/07/02 03:01:50;;;;;;;9.65;6.60;;;10.70;99.90;;;;;;5052997;28;20541;-64
2022/07/02 03:04:16;;;;;;;7.60;6.65;;;10.70;99.90;;;;;;5052915;28;20029;-64
2022/07/02 03:06:42;;;;;;;9.07;7.43;;;10.60;99.90;;;;;;5052914;28;20033;-64
2022/07/02 03:09:07;;;;;;;10.18;6.85;;;10.60;99.90;;;;;;5053129;28;20029;-64
2022/07/02 03:11:33;;;;;;;6.88;6.22;;;10.70;99.90;;;;;;5053126;28;20035;-64
2022/07/02 03:13:58;;;;;;;7.43;6.07;;;10.60;99.90;;;;;;5053034;28;20021;-64
2022/07/02 03:16:24;;;;;;;9.48;6.97;;;10.60;99.90;;;;;;5052827;28;20540;-64
2022/07/02 03:18:50;;;;;;;9.00;6.90;;;10.60;99.90;;;;;;5053054;28;20035;-64
2022/07/02 03:21:16;;;;;;;9.15;7.35;;;10.60;99.90;;;;;;5053042;28;20021;-63
2022/07/02 03:23:41;;;;;;;12.05;9.20;;;10.60;99.90;;;;;;5052697;28;20025;-64
2022/07/02 03:26:07;;;;;;;9.90;7.47;;;10.60;99.90;;;;;;5052711;28;20029;-64
2022/07/02 03:28:33;;;;;;;9.68;7.68;;;10.60;99.90;;;;;;5052703;28;20032;-64
2022/07/02 03:30:58;;;;;;;8.57;6.70;;;10.70;99.90;;;;;;5052941;28;20112;-63
2022/07/02 03:33:25;;;;;;;8.05;6.90;;;10.60;99.90;;;;;;5052586;28;20056;-63
2022/07/02 03:35:50;;;;;;;11.50;8.30;;;10.60;99.90;;;;;;5052666;28;20567;-64
2022/07/02 03:38:16;;;;;;;11.68;7.93;;;10.60;99.90;;;;;;5052871;28;20044;-63
2022/07/02 03:40:42;;;;;;;10.80;7.55;;;10.60;99.90;;;;;;5054212;28;20021;-63
2022/07/02 03:43:07;;;;;;;8.80;7.25;;;10.60;99.90;;;;;;5055133;28;20032;-64
2022/07/02 03:45:33;;;;;;;8.85;6.60;;;10.70;99.90;;;;;;5056783;28;20075;-64
2022/07/02 03:47:58;;;;;;;9.50;7.20;;;10.70;99.90;;;;;;5056539;28;20028;-64
2022/07/02 03:50:24;;;;;;;12.07;8.15;;;10.70;99.90;;;;;;5056463;28;20059;-64
2022/07/02 03:52:50;;;;;;;10.40;7.05;;;10.80;99.90;;;;;;5056157;28;20415;-65
2022/07/02 03:55:15;;;;;;;10.38;7.53;;;10.80;99.90;;;;;;5056378;28;20383;-64
2022/07/02 03:57:41;;;;;;;9.70;8.70;;;10.80;99.90;;;;;;5056151;28;20021;-64
2022/07/02 04:00:08;;;;;;;11.55;8.15;;;10.90;99.90;;;;;;5056057;28;20112;-64
2022/07/02 04:02:34;;;;;;;12.70;9.20;;;11.00;99.90;;;;;;5056299;28;20032;-63
2022/07/02 04:04:59;;;;;;;10.85;9.13;;;11.10;99.90;;;;;;5056264;28;20387;-64
2022/07/02 04:07:25;;;;;;;12.02;8.82;;;11.10;99.90;;;;;;5056192;28;20028;-64
2022/07/02 04:09:50;;;;;;;13.48;9.25;;;11.20;99.90;;;;;;5055884;28;20095;-64
2022/07/02 04:12:16;;;;;;;10.65;7.95;;;11.20;99.90;;;;;;5055895;28;20025;-65
2022/07/02 04:14:42;;;;;;;12.82;8.77;;;11.40;99.90;;;;;;5055812;28;20071;-64
2022/07/02 04:17:07;;;;;;;12.20;8.93;;;11.40;99.90;;;;;;5055997;28;20040;-64
2022/07/02 04:19:33;;;;;;;11.32;8.50;;;11.50;99.90;;;;;;5055664;28;20083;-64
2022/07/02 04:22:01;;;;;;;11.77;8.38;;;11.60;99.90;;;;;;5055603;28;20033;-64
2022/07/02 04:24:28;;;;;;;15.25;8.05;;;11.70;99.90;;;;;;5054742;28;20040;-64
2022/07/02 04:26:53;;;;;;;8.98;7.75;;;11.90;99.90;;;;;;5054384;28;20541;-64
2022/07/02 04:29:19;;;;;;;8.93;7.22;;;12.10;99.90;;;;;;5055601;28;20025;-64
2022/07/02 04:31:44;;;;;;;10.73;7.32;;;12.20;99.90;;;;;;5055750;28;20037;-65
2022/07/02 04:34:10;;;;;;;7.28;6.35;;;12.40;99.90;;;;;;5055629;28;20071;-65
2022/07/02 04:36:37;;;;;;;7.38;6.22;;;12.60;99.90;;;;;;5055664;28;20121;-64
2022/07/02 04:39:03;;;;;;;9.68;6.10;;;13.00;99.90;;;;;;5055375;28;20028;-65
2022/07/02 04:41:28;;;;;;;8.88;4.57;;;13.60;99.90;;;;;;5055567;28;20471;-65
2022/07/02 04:43:54;;;;;;;5.05;4.05;;;14.90;99.90;;;;;;5055321;28;20491;-65
2022/07/02 04:46:20;;;;;;;5.78;3.28;;;16.50;99.90;;;;;;5055487;28;20029;-65
2022/07/02 04:48:45;;;;;;;5.53;2.95;;;18.20;99.90;;;;;;5055244;28;20029;-65
2022/07/02 04:51:11;;;;;;;5.60;2.72;;;20.00;99.90;;;;;;5055137;28;20471;-66
2022/07/02 04:53:36;;;;;;;10.40;3.00;;;20.60;99.90;;;;;;5054844;28;20045;-66
2022/07/02 04:56:02;;;;;;;3.83;2.60;;;21.30;99.90;;;;;;5055064;28;20033;-66
2022/07/02 04:58:28;;;;;;;3.72;2.50;;;21.90;99.90;;;;;;5055224;28;20021;-66
2022/07/02 05:00:53;;;;;;;4.95;2.83;;;22.50;99.90;;;;;;5054947;28;20471;-66
2022/07/02 05:03:19;;;;;;;4.18;2.85;;;23.10;99.90;;;;;;5054890;28;20029;-66
2022/07/02 05:05:44;;;;;;;2.63;2.20;;;23.20;99.90;;;;;;5054971;28;20086;-65
2022/07/02 05:08:10;;;;;;;3.25;2.30;;;23.60;97.80;;;;;;5054788;28;20035;-66
2022/07/02 05:10:36;;;;;;;5.43;2.30;;;23.40;97.60;;;;;;5055010;28;20040;-66
2022/07/02 05:13:03;;;;;;;3.90;2.35;;;23.20;97.60;;;;;;5054598;28;20086;-66
2022/07/02 05:15:29;;;;;;;5.38;2.38;;;23.30;96.90;;;;;;5054580;28;20111;-66
2022/07/02 05:17:55;;;;;;;3.20;1.98;;;23.70;95.50;;;;;;5054638;28;20069;-66
2022/07/02 05:20:21;;;;;;;4.07;2.00;;;23.70;95.70;;;;;;5054626;28;20179;-66
2022/07/02 05:22:46;;;;;;;4.65;2.08;;;23.40;97.30;;;;;;5054603;28;20025;-66
2022/07/02 05:25:12;;;;;;;5.15;2.17;;;23.40;96.10;;;;;;5054727;28;20021;-66
2022/07/02 05:27:37;;;;;;;4.13;2.20;;;23.70;95.20;;;;;;5054713;28;20106;-66
2022/07/02 05:30:04;;;;;;;3.33;2.30;;;24.10;94.20;;;;;;5054617;28;20387;-64
2022/07/02 05:32:29;;;;;;;5.28;2.22;;;25.20;91.50;;;;;;5054506;28;20503;-64
2022/07/02 05:34:55;;;;;;;6.00;2.20;;;25.60;90.50;;;;;;5054261;28;20056;-64
2022/07/02 05:37:20;;;;;;;4.60;2.30;;;25.90;90.50;;;;;;5054292;28;20025;-64
2022/07/02 05:39:46;;;;;;;3.78;2.25;;;26.70;86.50;;;;;;5054258;28;20021;-64
2022/07/02 05:42:11;;;;;;;4.57;2.25;;;26.70;82.90;;;;;;5054115;28;20074;-64
2022/07/02 05:44:37;;;;;;;3.20;2.45;;;25.20;87.70;;;;;;5054335;28;20028;-64
2022/07/02 05:47:03;;;;;;;4.20;2.30;;;26.20;85.10;;;;;;5054287;28;20028;-64
2022/07/02 05:49:28;;;;;;;4.82;2.20;;;25.70;84.60;;;;;;5054005;28;20112;-64
2022/07/02 05:51:54;;;;;;;3.83;2.00;;;25.50;84.90;;;;;;5054184;28;20032;-64
2022/07/02 05:54:19;;;;;;;3.95;1.90;;;25.00;85.60;;;;;;5053668;28;20107;-64
2022/07/02 05:56:45;;;;;;;4.32;2.22;;;25.40;85.50;;;;;;5052719;28;20021;-64
2022/07/02 05:59:11;;;;;;;4.85;2.40;;;25.50;84.10;;;;;;5054071;28;20092;-64
2022/07/02 06:01:36;;;;;;;4.38;2.17;;;25.70;83.50;;;;;;5054054;28;20025;-65
2022/07/02 06:04:02;;;;;;;4.35;1.80;;;25.80;81.60;;;;;;5053234;28;20052;-64
2022/07/02 06:09:13;;;;;;;4.57;2.17;;;25.70;83.20;;;;;;5053513;28;20025;-64
2022/07/02 06:11:39;;;;;;;2.33;1.75;;;24.80;85.90;;;;;;5053878;28;20491;-64
2022/07/02 06:14:04;;;;;;;3.35;1.98;;;25.30;88.20;;;;;;5053800;28;20112;-64
2022/07/02 06:16:30;;;;;;;4.10;1.83;;;25.60;83.80;;;;;;5053560;28;20029;-64
2022/07/02 06:18:56;;;;;;;5.68;2.28;;;25.50;84.70;;;;;;5053536;28;20040;-64
2022/07/02 06:21:21;;;;;;;4.75;1.80;;;26.20;82.70;;;;;;5053520;28;20020;-64
2022/07/02 06:23:47;;;;;;;2.88;1.90;;;27.30;80.30;;;;;;5053655;28;20029;-64
2022/07/02 06:26:12;;;;;;;5.35;2.30;;;27.30;77.90;;;;;;5053623;28;20029;-64
2022/07/02 06:28:38;;;;;;;4.07;1.92;;;27.10;77.60;;;;;;5053644;28;20021;-64
2022/07/02 06:31:03;;;;;;;6.20;2.20;;;26.80;78.80;;;;;;5053346;28;20033;-64
2022/07/02 06:33:29;;;;;;;3.63;2.05;;;26.70;78.90;;;;;;5053468;28;20035;-65
2022/07/02 06:35:55;;;;;;;3.83;1.98;;;26.90;78.30;;;;;;5053350;28;20051;-64
2022/07/02 06:38:20;;;;;;;7.78;2.00;;;27.10;78.20;;;;;;5053470;28;20047;-64
2022/07/02 06:40:46;;;;;;;3.33;1.88;;;27.50;77.40;;;;;;5053440;28;20379;-64
2022/07/02 06:43:12;;;;;;;6.53;1.55;;;27.00;77.60;;;;;;5053430;28;20104;-64
2022/07/02 06:45:37;;;;;;;3.67;1.90;;;28.50;74.80;;;;;;5053133;28;20083;-64
2022/07/02 06:48:03;;;;;;;3.70;1.65;;;28.80;70.90;;;;;;5053283;28;20033;-64
2022/07/02 06:50:29;;;;;;;3.42;1.67;;;28.40;70.40;;;;;;5053134;28;20154;-64
2022/07/02 06:52:54;;;;;;;3.83;1.90;;;27.80;73.10;;;;;;5051755;28;20047;-64
2022/07/02 06:55:21;;;;;;;2.67;1.55;;;27.60;73.00;;;;;;5052987;28;20505;-64
2022/07/02 06:57:49;;;;;;;3.55;1.50;;;28.50;71.40;;;;;;5053393;28;20033;-64
2022/07/02 07:00:16;;;;;;;3.20;1.50;;;27.70;70.70;;;;;;5053197;28;20383;-64
2022/07/02 07:02:42;;;;;;;3.97;1.67;;;29.00;70.00;;;;;;5053209;28;20108;-64
2022/07/02 07:05:08;;;;;;;2.83;1.40;;;28.20;68.20;;;;;;5053201;28;20071;-64
2022/07/02 07:07:34;;;;;;;4.93;1.80;;;28.00;69.40;;;;;;5052866;28;20021;-64
2022/07/02 07:10:00;;;;;;;4.80;1.63;;;27.70;70.50;;;;;;5053138;28;20475;-64
2022/07/02 07:12:26;;;;;;;4.28;1.60;;;27.20;70.40;;;;;;5052898;28;20083;-64
2022/07/02 07:14:52;;;;;;;4.70;1.70;;;27.10;71.90;;;;;;5054252;28;20116;-64
2022/07/02 07:17:17;;;;;;;2.47;1.60;;;28.10;71.60;;;;;;5057138;28;20387;-65
2022/07/02 07:19:43;;;;;;;7.60;1.75;;;28.80;69.20;;;;;;5055596;28;20036;-64
2022/07/02 07:22:09;;;;;;;5.57;1.50;;;28.00;69.60;;;;;;5057021;28;20025;-65
2022/07/02 07:24:35;;;;;;;6.07;1.80;;;28.10;68.50;;;;;;5056732;28;20079;-64
2022/07/02 07:27:01;;;;;;;4.78;1.40;;;27.50;68.70;;;;;;5056944;28;20033;-64
2022/07/02 07:29:26;;;;;;;2.63;1.50;;;27.50;69.50;;;;;;5056882;28;20031;-64
2022/07/02 07:31:52;;;;;;;2.30;1.20;;;27.50;69.20;;;;;;5055330;28;20025;-64
2022/07/02 07:34:18;;;;;;;4.97;1.33;;;27.50;68.70;;;;;;5056555;28;20087;-65
2022/07/02 07:36:44;;;;;;;4.65;1.67;;;27.30;67.10;;;;;;5056781;28;20016;-64
2022/07/02 07:39:09;;;;;;;3.47;1.40;;;28.50;64.80;;;;;;5056675;28;20464;-64
2022/07/02 07:41:35;;;;;;;4.05;1.20;;;28.00;63.20;;;;;;5056684;28;20021;-64
2022/07/02 07:44:02;;;;;;;2.78;1.30;;;27.80;65.60;;;;;;5056365;28;20482;-64
2022/07/02 07:46:27;;;;;;;2.13;1.13;;;29.10;60.70;;;;;;5055122;28;20483;-64
2022/07/02 07:48:53;;;;;;;4.25;1.20;;;27.80;61.80;;;;;;5056533;28;20029;-64
2022/07/02 07:51:19;;;;;;;2.10;1.40;;;28.90;60.20;;;;;;5056495;28;20025;-64
2022/07/02 07:53:44;;;;;;;3.28;1.25;;;29.40;59.00;;;;;;5054860;28;20396;-64
2022/07/02 07:56:17;;;;;;;5.00;1.13;;;27.60;62.30;;;;;;5056357;28;20111;-64
2022/07/02 07:58:43;;;;;;;3.10;1.25;;;26.60;61.80;;;;;;5056157;28;20025;-64
2022/07/02 08:01:09;;;;;;;2.70;1.10;;;26.90;63.30;;;;;;5055981;28;20104;-64
2022/07/02 08:03:34;;;;;;;2.65;1.27;;;27.10;64.30;;;;;;5056221;28;20036;-64
2022/07/02 08:06:00;;;;;;;3.47;1.13;;;27.50;61.80;;;;;;5056197;28;20035;-64
2022/07/02 08:08:26;;;;;;;3.95;1.48;;;28.50;60.70;;;;;;5055952;28;20545;-65
2022/07/02 08:10:51;;;;;;;6.15;1.77;;;28.40;62.00;;;;;;5055886;28;20387;-65
2022/07/02 08:13:17;;;;;;;5.90;1.23;;;28.80;62.00;;;;;;5054549;28;20021;-65
2022/07/02 08:15:43;;;;;;;2.92;1.02;;;28.70;59.90;;;;;;5055752;28;20029;-64
2022/07/02 08:18:09;;;;;;;4.03;1.25;;;28.40;60.10;;;;;;5055725;28;20086;-66
2022/07/02 08:20:35;;;;;;;3.85;1.20;;;28.00;59.60;;;;;;5054760;28;20021;-64
2022/07/02 08:23:01;;;;;;;3.05;1.20;;;27.50;61.80;;;;;;5055876;28;20479;-64
2022/07/02 08:25:26;;;;;;;3.65;1.27;;;27.20;62.30;;;;;;5055154;28;20044;-65
2022/07/02 08:27:52;;;;;;;2.63;1.10;;;27.80;59.60;;;;;;5054642;28;20099;-65
2022/07/02 08:30:18;;;;;;;3.90;1.05;;;27.60;59.70;;;;;;5055413;28;20499;-64
2022/07/02 08:32:43;;;;;;;1.65;1.05;;;28.40;58.20;;;;;;5055629;28;20025;-64
2022/07/02 08:35:09;;;;;;;3.15;0.90;;;28.90;58.20;;;;;;5055420;28;20059;-64
2022/07/02 08:37:35;;;;;;;2.35;0.90;;;29.40;55.90;;;;;;5055347;28;20017;-64
2022/07/02 08:40:00;;;;;;;5.20;1.00;;;28.40;56.60;;;;;;5055591;28;20029;-65
2022/07/02 08:42:30;;;;;;;1.73;0.98;;;29.40;55.40;;;;;;5055493;28;20054;-65
2022/07/02 08:44:58;;;;;;;3.42;1.20;;;30.70;53.90;;;;;;5055256;28;20435;-65
2022/07/02 08:47:24;;;;;;;1.83;1.25;;;28.60;54.80;;;;;;5054287;28;20028;-64
2022/07/02 08:49:53;;;;;;;3.65;0.90;;;27.60;58.20;;;;;;5055378;28;20483;-64
2022/07/02 08:52:20;;;;;;;3.83;1.10;;;26.50;59.70;;;;;;5053623;28;20149;-65
2022/07/02 08:54:47;;;;;;;2.28;1.10;;;25.30;62.40;;;;;;5055027;28;20025;-65
2022/07/02 08:57:13;;;;;;;5.10;1.20;;;25.90;64.90;;;;;;5055254;28;20475;-65
2022/07/02 08:59:40;;;;;;;3.95;1.10;;;26.50;62.00;;;;;;5055272;28;20483;-64
2022/07/02 09:02:07;;;;;;;2.67;1.00;;;27.70;60.00;;;;;;5054912;28;20464;-64
2022/07/02 09:04:34;;;;;;;4.28;1.10;;;28.80;57.40;;;;;;5055134;28;20025;-64
2022/07/02 09:07:02;;;;;;;5.75;0.98;;;27.20;57.40;;;;;;5055125;28;20158;-64
2022/07/02 09:09:29;;;;;;;3.40;1.17;;;26.30;58.40;;;;;;5054831;28;20024;-64
2022/07/02 09:11:56;;;;;;;2.08;0.60;;;25.50;59.80;;;;;;5054994;28;20543;-64
2022/07/02 09:14:22;;;;;;;1.27;0.60;;;25.10;62.60;;;;;;5054828;28;20498;-63
2022/07/02 09:16:48;;;;;;;2.50;0.80;;;26.00;59.90;;;;;;5053740;28;20025;-63
2022/07/02 09:19:15;;;;;;;2.08;0.70;;;26.90;59.40;;;;;;5053647;28;20060;-63
2022/07/02 09:21:42;;;;;;;2.58;0.73;;;27.30;56.10;;;;;;5054527;28;20067;-63
2022/07/02 09:24:08;;;;;;;3.55;0.80;;;27.00;58.00;;;;;;5054738;28;20099;-63
2022/07/02 09:26:34;;;;;;;4.85;0.80;;;26.30;58.70;;;;;;5054465;28;20025;-64
2022/07/02 09:29:01;;;;;;;2.70;0.80;;;26.90;58.30;;;;;;5054649;28;20082;-64
2022/07/02 09:31:27;;;;;;;3.67;0.80;;;26.90;57.40;;;;;;5054588;28;20026;-65
2022/07/02 09:33:53;;;;;;;3.40;0.90;;;27.20;57.00;;;;;;5052967;28;20025;-65
2022/07/02 09:36:19;;;;;;;2.58;0.90;;;26.50;57.50;;;;;;5054161;28;20021;-64
2022/07/02 09:38:47;;;;;;;3.13;0.80;;;27.00;57.30;;;;;;5053422;28;20017;-65
2022/07/02 09:41:14;;;;;;;3.53;0.70;;;27.70;59.00;;;;;;5053258;28;20111;-65
2022/07/02 09:43:40;;;;;;;2.33;0.93;;;28.20;56.40;;;;;;5054138;28;20029;-64
2022/07/02 09:46:16;;;;;;;2.20;0.63;;;27.60;56.40;;;;;;5054274;28;20025;-64
2022/07/02 09:48:42;;;;;;;5.50;0.70;;;26.40;57.90;;;;;;5054288;28;20463;-65
2022/07/02 09:51:07;;;;;;;3.13;0.95;;;25.80;59.80;;;;;;5054197;28;20100;-65
2022/07/02 09:53:33;;;;;;;1.45;0.73;;;26.50;58.10;;;;;;5053719;28;20048;-65
2022/07/02 09:56:02;;;;;;;1.75;0.65;;;27.40;56.30;;;;;;5053923;28;20029;-64
2022/07/02 09:58:28;;;;;;;2.10;0.80;;;27.70;56.00;;;;;;5054093;28;20503;-64
2022/07/02 10:00:59;;;;;;;3.35;0.70;;;27.80;53.60;;;;;;5052898;28;20074;-64
2022/07/02 10:03:27;;;;;;;1.80;0.47;;;27.50;54.30;;;;;;5054027;28;20485;-65
2022/07/02 10:05:52;;;;;;;1.13;0.70;;;28.60;54.50;;;;;;5053974;28;20036;-65
2022/07/02 10:08:19;;;;;;;4.65;0.77;;;29.80;53.00;;;;;;5035794;28;20029;-65
2022/07/02 10:10:46;;;;;;;2.25;0.68;;;29.50;52.10;;;;;;5053910;28;20025;-64
2022/07/02 10:13:13;;;;;;;2.08;0.85;;;28.10;54.00;;;;;;5053795;28;20090;-64
2022/07/02 10:15:49;;;;;;;3.20;0.80;;;27.10;55.50;;;;;;5053816;28;20031;-64
2022/07/02 10:18:16;;;;;;;1.58;0.60;;;27.10;57.00;;;;;;5053659;28;20100;-64
2022/07/02 10:20:42;;;;;;;2.88;0.82;;;26.80;57.60;;;;;;5053683;28;20424;-64
2022/07/02 10:23:08;;;;;;;2.47;1.15;;;25.80;58.50;;;;;;5053741;28;20029;-64
2022/07/02 10:25:34;;;;;;;3.03;0.80;;;26.00;61.00;;;;;;5052157;28;20541;-64
2022/07/02 10:28:01;;;;;;;2.15;0.82;;;25.80;59.80;;;;;;5053426;28;20040;-64
2022/07/02 10:30:35;;;;;;;2.58;0.70;;;25.20;60.30;;;;;;5053567;28;20036;-63
2022/07/02 10:33:35;;;;;;;1.63;0.80;;;25.10;61.00;;;;;;5053453;28;20032;-64
2022/07/02 10:36:03;;;;;;;3.75;0.95;;;25.30;59.60;;;;;;5053229;28;20053;-64
2022/07/02 10:38:32;;;;;;;2.83;0.70;;;25.20;59.50;;;;;;5053394;28;20476;-64
2022/07/02 10:40:58;;;;;;;2.17;0.70;;;25.60;60.80;;;;;;5053245;28;20021;-65
2022/07/02 10:43:26;;;;;;;3.55;0.80;;;25.70;58.60;;;;;;5053206;28;20033;-64
2022/07/02 10:46:03;;;;;;;3.30;0.80;;;26.20;59.00;;;;;;5053210;28;20502;-64
2022/07/02 10:48:29;;;;;;;2.47;0.88;;;26.90;57.90;;;;;;5051958;28;20106;-64
2022/07/02 10:50:58;;;;;;;5.65;0.90;;;27.00;58.30;;;;;;5053247;28;20070;-64
2022/07/02 10:53:27;;;;;;;3.97;0.77;;;26.70;56.30;;;;;;5052884;28;20122;-64
2022/07/02 10:58:35;;;;;;;1.17;0.60;;;26.60;57.50;;;;;;5111082;27;20372;-66
2022/07/02 11:01:13;;;;;;;3.22;0.57;;;26.90;57.20;;;;;;5111083;28;20505;-66
2022/07/02 11:03:56;;;;;;;1.88;0.65;;;27.70;57.30;;;;;;5111293;28;20053;-65
2022/07/02 11:06:24;;;;;;;1.40;0.82;;;27.30;56.30;;;;;;5109841;28;20081;-65
2022/07/02 11:08:54;;;;;;;2.55;0.60;;;26.40;57.20;;;;;;5111060;28;20119;-66
2022/07/02 11:11:27;;;;;;;1.65;0.60;;;26.60;59.00;;;;;;5111028;28;20028;-65
2022/07/02 11:14:16;;;;;;;4.88;0.95;;;26.60;58.20;;;;;;5110832;28;20027;-66
2022/07/02 11:16:50;;;;;;;2.40;0.57;;;26.70;57.00;;;;;;5110989;28;20497;-65
2022/07/02 11:19:25;;;;;;;5.03;0.80;;;26.50;57.10;;;;;;5110790;28;20024;-65
2022/07/02 11:21:54;;;;;;;4.07;0.80;;;26.80;56.70;;;;;;5110935;28;20066;-66
2022/07/02 11:24:22;;;;;;;1.95;0.63;;;27.20;56.80;;;;;;5110883;28;20102;-66
2022/07/02 11:26:48;;;;;;;3.00;0.70;;;27.10;56.30;;;;;;5110853;28;20432;-65
2022/07/02 11:29:14;;;;;;;1.38;0.80;;;27.00;56.30;;;;;;5110778;28;20024;-66
2022/07/02 11:31:44;;;;;;;3.95;0.70;;;27.10;56.10;;;;;;5110467;28;20024;-65
2022/07/02 11:34:10;;;;;;;6.88;1.00;;;26.80;56.50;;;;;;5110460;28;20103;-66
2022/07/02 11:36:37;;;;;;;2.60;0.70;;;26.40;56.50;;;;;;5110548;28;20115;-65
2022/07/02 11:39:22;;;;;;;2.08;0.70;;;26.40;58.80;;;;;;5110554;28;20032;-66
2022/07/02 11:41:49;;;;;;;0.57;0.55;;;26.20;57.10;;;;;;5110402;28;20107;-65
2022/07/02 11:44:17;;;;;;;1.05;0.60;;;26.00;58.20;;;;;;5110528;28;20525;-66
2022/07/02 11:46:48;;;;;;;2.45;0.57;;;26.30;57.80;;;;;;5110376;28;20035;-66
2022/07/02 11:49:16;;;;;;;1.48;0.63;;;26.50;57.60;;;;;;5109242;28;20500;-66
2022/07/02 11:51:44;;;;;;;2.90;0.70;;;26.50;57.90;;;;;;5110440;28;20035;-66
2022/07/02 11:54:10;;;;;;;3.45;0.85;;;26.40;57.50;;;;;;5110095;28;20389;-66
2022/07/02 11:56:38;;;;;;;3.08;0.70;;;26.60;58.10;;;;;;5109942;28;20079;-65
2022/07/02 11:59:06;;;;;;;3.05;0.75;;;26.80;57.50;;;;;;5108638;28;20020;-65
2022/07/02 12:01:33;;;;;;;1.30;0.70;;;26.70;57.10;;;;;;5109896;28;20038;-66
2022/07/02 12:04:02;;;;;;;3.25;0.80;;;26.60;57.00;;;;;;5109845;28;20082;-66
2022/07/02 12:06:31;;;;;;;3.33;0.60;;;26.30;57.30;;;;;;5110083;28;20395;-66
2022/07/02 12:08:58;;;;;;;1.35;0.70;;;26.50;56.60;;;;;;5101619;28;20394;-66
2022/07/02 12:11:25;;;;;;;1.52;0.68;;;26.90;59.50;;;;;;5094984;28;20530;-66
2022/07/02 12:13:52;;;;;;;1.33;0.70;;;26.80;57.00;;;;;;5096162;28;20386;-66
2022/07/02 12:16:21;;;;;;;3.72;0.73;;;27.40;57.40;;;;;;5096129;28;20028;-65
2022/07/02 12:19:05;;;;;;;2.25;0.90;;;27.10;56.60;;;;;;5095993;28;20059;-65
2022/07/02 12:21:34;;;;;;;;;;;27.10;56.30;;;;;;5096645;28;20028;-65
2022/07/02 12:24:00;;;;;;;;;;;27.30;56.80;;;;;;5096618;28;19973;-66
2022/07/02 12:26:26;;;;;;;;;;;26.80;56.40;;;;;;5096309;28;19903;-66
2022/07/02 12:31:47;;;;;;;;;;;26.20;56.20;;;;;;5096007;28;19911;-66
2022/07/02 12:34:13;;;;;;;;;;;26.50;57.50;;;;;;5112173;28;19982;-65
2022/07/02 12:36:46;;;;;;;;;;;26.40;57.40;;;;;;5096329;28;20385;-65
2022/07/02 12:39:12;;;;;;;;;;;26.80;56.70;;;;;;5096351;28;19908;-66
2022/07/02 12:41:38;;;;;;;;;;;26.80;56.10;;;;;;5096033;28;19911;-66
2022/07/02 12:44:03;;;;;;;;;;;26.80;56.10;;;;;;5094722;28;19911;-65
2022/07/02 12:46:29;;;;;;;;;;;26.70;57.00;;;;;;5096177;28;19904;-65
2022/07/02 12:48:54;;;;;;;;;;;27.20;56.30;;;;;;5095788;28;19911;-65
2022/07/02 12:51:21;;;;;;;;;;;27.30;56.50;;;;;;5095728;28;19904;-66
2022/07/02 12:54:02;;;;;;;;;;;27.30;56.10;;;;;;5096048;28;19904;-66
2022/07/02 12:56:38;;;;;;;;;;;27.30;56.10;;;;;;5095407;28;19919;-65
2022/07/02 12:59:03;;;;;;;;;;;27.50;56.10;;;;;;5095636;28;19904;-66